sensor_id;sensor_type;location;lat;lon;timestamp;P1;durP1;ratioP1;P2;durP2;ratioP2
11228;SDS011;5671;47.936;8.716;2023-06-14T00:01:47;3.70;;;2.40;;
11228;SDS011;5671;47.936;8.716;2023-06-14T00:04:14;3.27;;;2.20;;
11228;SDS011;5671;47.936;8.716;2023-06-14T00:06:43;2.63;;;2.43;;
11228;SDS011;5671;47.936;8.716;2023-06-14T00:09:12;2.30;;;2.10;;
11228;SDS011;5671;47.936;8.716;2023-06-14T00:11:42;4.83;;;2.27;;
11228;SDS011;5671;47.936;8.716;2023-06-14T00:14:09;4.07;;;2.40;;
11228;SDS011;5671;47.936;8.716;2023-06-14T00:16:36;2.37;;;2.17;;
11228;SDS011;5671;47.936;8.716;2023-06-14T00:19:04;4.00;;;2.30;;
11228;SDS011;5671;47.936;8.716;2023-06-14T00:21:31;6.17;;;2.43;;
11228;SDS011;5671;47.936;8.716;2023-06-14T00:23:58;2.47;;;2.20;;
11228;SDS011;5671;47.936;8.716;2023-06-14T00:26:26;3.40;;;2.40;;
11228;SDS011;5671;47.936;8.716;2023-06-14T00:28:53;2.60;;;2.40;;
11228;SDS011;5671;47.936;8.716;2023-06-14T00:31:21;3.30;;;2.30;;
11228;SDS011;5671;47.936;8.716;2023-06-14T00:33:48;4.27;;;2.53;;
11228;SDS011;5671;47.936;8.716;2023-06-14T00:36:15;3.10;;;2.07;;
11228;SDS011;5671;47.936;8.716;2023-06-14T00:38:42;2.30;;;2.10;;
11228;SDS011;5671;47.936;8.716;2023-06-14T00:41:08;4.80;;;2.43;;
11228;SDS011;5671;47.936;8.716;2023-06-14T00:43:37;4.43;;;2.57;;
11228;SDS011;5671;47.936;8.716;2023-06-14T00:46:03;4.17;;;2.20;;
11228;SDS011;5671;47.936;8.716;2023-06-14T00:48:30;2.40;;;2.20;;
11228;SDS011;5671;47.936;8.716;2023-06-14T00:50:59;4.20;;;2.27;;
11228;SDS011;5671;47.936;8.716;2023-06-14T00:53:29;3.47;;;2.57;;
11228;SDS011;5671;47.936;8.716;2023-06-14T00:55:56;3.10;;;2.17;;
11228;SDS011;5671;47.936;8.716;2023-06-14T00:58:23;3.90;;;2.50;;
11228;SDS011;5671;47.936;8.716;2023-06-14T01:00:52;2.57;;;2.37;;
11228;SDS011;5671;47.936;8.716;2023-06-14T01:03:19;5.17;;;2.50;;
11228;SDS011;5671;47.936;8.716;2023-06-14T01:05:47;3.87;;;2.43;;
11228;SDS011;5671;47.936;8.716;2023-06-14T01:08:20;3.00;;;2.23;;
11228;SDS011;5671;47.936;8.716;2023-06-14T01:10:52;3.47;;;2.40;;
11228;SDS011;5671;47.936;8.716;2023-06-14T01:13:24;3.17;;;2.60;;
11228;SDS011;5671;47.936;8.716;2023-06-14T01:15:55;5.90;;;2.40;;
11228;SDS011;5671;47.936;8.716;2023-06-14T01:18:22;3.00;;;2.30;;
11228;SDS011;5671;47.936;8.716;2023-06-14T01:20:51;3.47;;;2.30;;
11228;SDS011;5671;47.936;8.716;2023-06-14T01:23:21;3.70;;;2.30;;
11228;SDS011;5671;47.936;8.716;2023-06-14T01:25:50;3.10;;;2.30;;
11228;SDS011;5671;47.936;8.716;2023-06-14T01:28:18;3.33;;;2.33;;
11228;SDS011;5671;47.936;8.716;2023-06-14T01:30:47;11.03;;;3.00;;
11228;SDS011;5671;47.936;8.716;2023-06-14T01:33:18;7.83;;;2.53;;
11228;SDS011;5671;47.936;8.716;2023-06-14T01:35:47;3.33;;;2.27;;
11228;SDS011;5671;47.936;8.716;2023-06-14T01:38:15;2.70;;;2.30;;
11228;SDS011;5671;47.936;8.716;2023-06-14T01:40:46;2.83;;;2.30;;
11228;SDS011;5671;47.936;8.716;2023-06-14T01:43:14;2.60;;;2.40;;
11228;SDS011;5671;47.936;8.716;2023-06-14T01:45:42;2.47;;;2.20;;
11228;SDS011;5671;47.936;8.716;2023-06-14T01:48:12;3.33;;;2.50;;
11228;SDS011;5671;47.936;8.716;2023-06-14T01:50:39;2.80;;;2.50;;
11228;SDS011;5671;47.936;8.716;2023-06-14T01:53:06;2.60;;;2.37;;
11228;SDS011;5671;47.936;8.716;2023-06-14T01:55:34;2.23;;;2.07;;
11228;SDS011;5671;47.936;8.716;2023-06-14T01:58:04;2.60;;;2.40;;
11228;SDS011;5671;47.936;8.716;2023-06-14T02:00:31;5.97;;;2.60;;
11228;SDS011;5671;47.936;8.716;2023-06-14T02:02:58;3.13;;;2.47;;
11228;SDS011;5671;47.936;8.716;2023-06-14T02:05:24;3.90;;;2.10;;
11228;SDS011;5671;47.936;8.716;2023-06-14T02:07:51;3.80;;;2.50;;
11228;SDS011;5671;47.936;8.716;2023-06-14T02:10:19;2.40;;;2.00;;
11228;SDS011;5671;47.936;8.716;2023-06-14T02:12:46;3.67;;;2.50;;
11228;SDS011;5671;47.936;8.716;2023-06-14T02:15:14;2.27;;;2.07;;
11228;SDS011;5671;47.936;8.716;2023-06-14T02:17:44;3.13;;;2.70;;
11228;SDS011;5671;47.936;8.716;2023-06-14T02:20:12;4.13;;;2.30;;
11228;SDS011;5671;47.936;8.716;2023-06-14T02:22:39;3.30;;;2.20;;
11228;SDS011;5671;47.936;8.716;2023-06-14T02:25:06;3.47;;;2.57;;
11228;SDS011;5671;47.936;8.716;2023-06-14T02:27:33;2.80;;;2.60;;
11228;SDS011;5671;47.936;8.716;2023-06-14T02:30:00;4.70;;;2.60;;
11228;SDS011;5671;47.936;8.716;2023-06-14T02:32:29;3.93;;;2.43;;
11228;SDS011;5671;47.936;8.716;2023-06-14T02:34:56;4.07;;;2.60;;
11228;SDS011;5671;47.936;8.716;2023-06-14T02:37:23;4.27;;;2.77;;
11228;SDS011;5671;47.936;8.716;2023-06-14T02:39:50;2.93;;;2.40;;
11228;SDS011;5671;47.936;8.716;2023-06-14T02:42:17;3.57;;;2.30;;
11228;SDS011;5671;47.936;8.716;2023-06-14T02:44:43;2.50;;;2.30;;
11228;SDS011;5671;47.936;8.716;2023-06-14T02:47:16;4.27;;;2.50;;
11228;SDS011;5671;47.936;8.716;2023-06-14T02:49:44;8.70;;;2.60;;
11228;SDS011;5671;47.936;8.716;2023-06-14T02:52:11;3.30;;;2.37;;
11228;SDS011;5671;47.936;8.716;2023-06-14T02:54:38;4.07;;;2.50;;
11228;SDS011;5671;47.936;8.716;2023-06-14T02:57:06;2.83;;;2.57;;
11228;SDS011;5671;47.936;8.716;2023-06-14T02:59:33;3.37;;;2.30;;
11228;SDS011;5671;47.936;8.716;2023-06-14T03:02:01;3.70;;;2.87;;
11228;SDS011;5671;47.936;8.716;2023-06-14T03:04:28;2.63;;;2.40;;
11228;SDS011;5671;47.936;8.716;2023-06-14T03:07:03;4.70;;;2.30;;
11228;SDS011;5671;47.936;8.716;2023-06-14T03:09:36;3.03;;;2.13;;
11228;SDS011;5671;47.936;8.716;2023-06-14T03:12:14;4.17;;;2.53;;
11228;SDS011;5671;47.936;8.716;2023-06-14T03:14:41;4.23;;;2.40;;
11228;SDS011;5671;47.936;8.716;2023-06-14T03:17:10;5.63;;;2.47;;
11228;SDS011;5671;47.936;8.716;2023-06-14T03:19:37;2.63;;;2.43;;
11228;SDS011;5671;47.936;8.716;2023-06-14T03:22:07;5.87;;;2.30;;
11228;SDS011;5671;47.936;8.716;2023-06-14T03:24:36;6.60;;;2.67;;
11228;SDS011;5671;47.936;8.716;2023-06-14T03:27:03;2.30;;;2.10;;
11228;SDS011;5671;47.936;8.716;2023-06-14T03:29:31;3.27;;;2.43;;
11228;SDS011;5671;47.936;8.716;2023-06-14T03:31:58;3.40;;;2.60;;
11228;SDS011;5671;47.936;8.716;2023-06-14T03:34:26;4.57;;;2.60;;
11228;SDS011;5671;47.936;8.716;2023-06-14T03:36:53;2.60;;;2.37;;
11228;SDS011;5671;47.936;8.716;2023-06-14T03:39:21;4.00;;;2.47;;
11228;SDS011;5671;47.936;8.716;2023-06-14T03:41:48;2.43;;;2.10;;
11228;SDS011;5671;47.936;8.716;2023-06-14T03:44:15;2.87;;;2.17;;
11228;SDS011;5671;47.936;8.716;2023-06-14T03:46:43;2.20;;;2.00;;
11228;SDS011;5671;47.936;8.716;2023-06-14T03:49:10;2.30;;;2.03;;
11228;SDS011;5671;47.936;8.716;2023-06-14T03:51:37;2.30;;;1.93;;
11228;SDS011;5671;47.936;8.716;2023-06-14T03:54:04;4.40;;;2.10;;
11228;SDS011;5671;47.936;8.716;2023-06-14T03:56:32;2.27;;;2.07;;
11228;SDS011;5671;47.936;8.716;2023-06-14T03:58:59;2.33;;;2.10;;
11228;SDS011;5671;47.936;8.716;2023-06-14T04:01:26;3.30;;;2.50;;
11228;SDS011;5671;47.936;8.716;2023-06-14T04:03:55;2.80;;;2.60;;
11228;SDS011;5671;47.936;8.716;2023-06-14T04:06:22;2.27;;;2.07;;
11228;SDS011;5671;47.936;8.716;2023-06-14T04:08:57;4.33;;;2.40;;
11228;SDS011;5671;47.936;8.716;2023-06-14T04:11:28;3.27;;;2.20;;
11228;SDS011;5671;47.936;8.716;2023-06-14T04:13:56;3.00;;;2.50;;
11228;SDS011;5671;47.936;8.716;2023-06-14T04:16:23;3.07;;;2.30;;
11228;SDS011;5671;47.936;8.716;2023-06-14T04:18:54;8.83;;;3.17;;
11228;SDS011;5671;47.936;8.716;2023-06-14T04:21:23;5.40;;;2.60;;
11228;SDS011;5671;47.936;8.716;2023-06-14T04:23:51;3.53;;;2.10;;
11228;SDS011;5671;47.936;8.716;2023-06-14T04:26:20;4.23;;;2.40;;
11228;SDS011;5671;47.936;8.716;2023-06-14T04:28:48;4.47;;;2.90;;
11228;SDS011;5671;47.936;8.716;2023-06-14T04:31:17;4.47;;;2.70;;
11228;SDS011;5671;47.936;8.716;2023-06-14T04:33:44;3.43;;;2.67;;
11228;SDS011;5671;47.936;8.716;2023-06-14T04:36:11;2.97;;;2.67;;
11228;SDS011;5671;47.936;8.716;2023-06-14T04:38:38;2.87;;;2.53;;
11228;SDS011;5671;47.936;8.716;2023-06-14T04:41:06;4.90;;;2.70;;
11228;SDS011;5671;47.936;8.716;2023-06-14T04:43:36;3.20;;;2.30;;
11228;SDS011;5671;47.936;8.716;2023-06-14T04:46:03;2.50;;;2.30;;
11228;SDS011;5671;47.936;8.716;2023-06-14T04:48:35;2.50;;;2.30;;
11228;SDS011;5671;47.936;8.716;2023-06-14T04:51:04;4.50;;;2.53;;
11228;SDS011;5671;47.936;8.716;2023-06-14T04:53:31;3.47;;;2.30;;
11228;SDS011;5671;47.936;8.716;2023-06-14T04:55:59;3.60;;;2.40;;
11228;SDS011;5671;47.936;8.716;2023-06-14T04:58:26;4.23;;;2.40;;
11228;SDS011;5671;47.936;8.716;2023-06-14T05:00:53;2.87;;;2.43;;
11228;SDS011;5671;47.936;8.716;2023-06-14T05:03:21;2.77;;;2.30;;
11228;SDS011;5671;47.936;8.716;2023-06-14T05:05:50;2.40;;;2.20;;
11228;SDS011;5671;47.936;8.716;2023-06-14T05:08:18;3.23;;;2.20;;
11228;SDS011;5671;47.936;8.716;2023-06-14T05:10:45;2.93;;;2.37;;
11228;SDS011;5671;47.936;8.716;2023-06-14T05:13:11;3.43;;;2.30;;
11228;SDS011;5671;47.936;8.716;2023-06-14T05:15:38;2.70;;;2.50;;
11228;SDS011;5671;47.936;8.716;2023-06-14T05:18:05;3.80;;;2.43;;
11228;SDS011;5671;47.936;8.716;2023-06-14T05:20:34;2.47;;;2.10;;
11228;SDS011;5671;47.936;8.716;2023-06-14T05:23:03;6.10;;;2.40;;
11228;SDS011;5671;47.936;8.716;2023-06-14T05:25:30;5.90;;;2.57;;
11228;SDS011;5671;47.936;8.716;2023-06-14T05:27:57;3.83;;;2.67;;
11228;SDS011;5671;47.936;8.716;2023-06-14T05:30:23;3.93;;;2.50;;
11228;SDS011;5671;47.936;8.716;2023-06-14T05:32:51;2.50;;;2.20;;
11228;SDS011;5671;47.936;8.716;2023-06-14T05:35:18;4.47;;;2.70;;
11228;SDS011;5671;47.936;8.716;2023-06-14T05:37:47;4.17;;;2.60;;
11228;SDS011;5671;47.936;8.716;2023-06-14T05:40:15;3.50;;;3.20;;
11228;SDS011;5671;47.936;8.716;2023-06-14T05:42:42;4.43;;;3.50;;
11228;SDS011;5671;47.936;8.716;2023-06-14T05:45:09;3.07;;;2.70;;
11228;SDS011;5671;47.936;8.716;2023-06-14T05:47:36;3.57;;;2.80;;
11228;SDS011;5671;47.936;8.716;2023-06-14T05:50:03;5.87;;;3.17;;
11228;SDS011;5671;47.936;8.716;2023-06-14T05:52:31;7.87;;;3.80;;
11228;SDS011;5671;47.936;8.716;2023-06-14T05:54:58;7.13;;;3.53;;
11228;SDS011;5671;47.936;8.716;2023-06-14T05:57:27;4.70;;;3.97;;
11228;SDS011;5671;47.936;8.716;2023-06-14T05:59:54;4.70;;;3.43;;
11228;SDS011;5671;47.936;8.716;2023-06-14T06:02:20;4.30;;;3.10;;
11228;SDS011;5671;47.936;8.716;2023-06-14T06:04:47;6.43;;;3.50;;
11228;SDS011;5671;47.936;8.716;2023-06-14T06:07:14;3.60;;;3.10;;
11228;SDS011;5671;47.936;8.716;2023-06-14T06:09:41;6.13;;;3.60;;
11228;SDS011;5671;47.936;8.716;2023-06-14T06:12:08;5.20;;;3.30;;
11228;SDS011;5671;47.936;8.716;2023-06-14T06:14:36;5.20;;;3.40;;
11228;SDS011;5671;47.936;8.716;2023-06-14T06:17:03;4.23;;;3.20;;
11228;SDS011;5671;47.936;8.716;2023-06-14T06:19:31;5.23;;;3.53;;
11228;SDS011;5671;47.936;8.716;2023-06-14T06:21:58;4.80;;;2.80;;
11228;SDS011;5671;47.936;8.716;2023-06-14T06:24:25;4.90;;;3.37;;
11228;SDS011;5671;47.936;8.716;2023-06-14T06:26:52;3.43;;;3.10;;
11228;SDS011;5671;47.936;8.716;2023-06-14T06:29:19;7.97;;;3.50;;
11228;SDS011;5671;47.936;8.716;2023-06-14T06:31:47;6.30;;;3.60;;
11228;SDS011;5671;47.936;8.716;2023-06-14T06:34:14;4.23;;;3.40;;
11228;SDS011;5671;47.936;8.716;2023-06-14T06:36:41;8.63;;;3.67;;
11228;SDS011;5671;47.936;8.716;2023-06-14T06:39:08;8.30;;;3.73;;
11228;SDS011;5671;47.936;8.716;2023-06-14T06:41:35;6.00;;;3.60;;
11228;SDS011;5671;47.936;8.716;2023-06-14T06:44:04;8.23;;;4.13;;
11228;SDS011;5671;47.936;8.716;2023-06-14T06:46:31;8.23;;;3.40;;
11228;SDS011;5671;47.936;8.716;2023-06-14T06:49:00;4.23;;;3.43;;
11228;SDS011;5671;47.936;8.716;2023-06-14T06:51:26;11.73;;;4.00;;
11228;SDS011;5671;47.936;8.716;2023-06-14T06:53:53;12.57;;;3.97;;
11228;SDS011;5671;47.936;8.716;2023-06-14T06:56:21;5.70;;;3.50;;
11228;SDS011;5671;47.936;8.716;2023-06-14T06:58:48;9.37;;;3.40;;
11228;SDS011;5671;47.936;8.716;2023-06-14T07:01:15;4.80;;;3.10;;
11228;SDS011;5671;47.936;8.716;2023-06-14T07:03:43;8.07;;;3.20;;
11228;SDS011;5671;47.936;8.716;2023-06-14T07:06:15;3.77;;;2.93;;
11228;SDS011;5671;47.936;8.716;2023-06-14T07:08:45;8.20;;;2.83;;
11228;SDS011;5671;47.936;8.716;2023-06-14T07:11:13;5.50;;;2.70;;
11228;SDS011;5671;47.936;8.716;2023-06-14T07:13:40;5.60;;;2.80;;
11228;SDS011;5671;47.936;8.716;2023-06-14T07:16:07;4.00;;;3.07;;
11228;SDS011;5671;47.936;8.716;2023-06-14T07:18:33;4.03;;;2.80;;
11228;SDS011;5671;47.936;8.716;2023-06-14T07:21:02;3.33;;;2.80;;
11228;SDS011;5671;47.936;8.716;2023-06-14T07:23:30;4.97;;;2.37;;
11228;SDS011;5671;47.936;8.716;2023-06-14T07:25:57;6.27;;;2.63;;
11228;SDS011;5671;47.936;8.716;2023-06-14T07:28:24;5.00;;;2.27;;
11228;SDS011;5671;47.936;8.716;2023-06-14T07:30:51;3.33;;;2.40;;
11228;SDS011;5671;47.936;8.716;2023-06-14T07:33:18;11.07;;;2.60;;
11228;SDS011;5671;47.936;8.716;2023-06-14T07:35:44;3.93;;;2.80;;
11228;SDS011;5671;47.936;8.716;2023-06-14T07:38:13;3.10;;;2.40;;
11228;SDS011;5671;47.936;8.716;2023-06-14T07:40:41;5.30;;;2.77;;
11228;SDS011;5671;47.936;8.716;2023-06-14T07:43:10;3.57;;;2.83;;
11228;SDS011;5671;47.936;8.716;2023-06-14T07:45:37;2.90;;;2.50;;
11228;SDS011;5671;47.936;8.716;2023-06-14T07:48:04;4.97;;;2.20;;
11228;SDS011;5671;47.936;8.716;2023-06-14T07:51:18;4.97;;;2.70;;
11228;SDS011;5671;47.936;8.716;2023-06-14T08:00:18;6.20;;;2.60;;
11228;SDS011;5671;47.936;8.716;2023-06-14T08:02:54;3.23;;;2.87;;
11228;SDS011;5671;47.936;8.716;2023-06-14T08:05:32;2.77;;;2.57;;
11228;SDS011;5671;47.936;8.716;2023-06-14T08:08:00;5.43;;;2.90;;
11228;SDS011;5671;47.936;8.716;2023-06-14T08:10:27;11.63;;;3.07;;
11228;SDS011;5671;47.936;8.716;2023-06-14T08:13:02;3.57;;;2.70;;
11228;SDS011;5671;47.936;8.716;2023-06-14T08:18:55;4.27;;;2.80;;
11228;SDS011;5671;47.936;8.716;2023-06-14T08:27:32;4.70;;;2.70;;
11228;SDS011;5671;47.936;8.716;2023-06-14T08:30:47;6.80;;;2.60;;
11228;SDS011;5671;47.936;8.716;2023-06-14T08:33:16;6.00;;;2.70;;
11228;SDS011;5671;47.936;8.716;2023-06-14T08:35:52;5.33;;;2.57;;
11228;SDS011;5671;47.936;8.716;2023-06-14T08:38:22;3.73;;;2.53;;
11228;SDS011;5671;47.936;8.716;2023-06-14T08:40:54;5.03;;;2.60;;
11228;SDS011;5671;47.936;8.716;2023-06-14T08:43:36;8.30;;;2.83;;
11228;SDS011;5671;47.936;8.716;2023-06-14T08:49:42;2.60;;;2.40;;
11228;SDS011;5671;47.936;8.716;2023-06-14T08:52:13;5.07;;;2.70;;
11228;SDS011;5671;47.936;8.716;2023-06-14T08:58:04;3.87;;;2.80;;
11228;SDS011;5671;47.936;8.716;2023-06-14T09:00:46;3.30;;;3.00;;
11228;SDS011;5671;47.936;8.716;2023-06-14T09:03:53;4.47;;;2.70;;
11228;SDS011;5671;47.936;8.716;2023-06-14T09:06:25;6.27;;;3.03;;
11228;SDS011;5671;47.936;8.716;2023-06-14T09:11:57;3.77;;;3.07;;
11228;SDS011;5671;47.936;8.716;2023-06-14T09:14:24;5.60;;;2.90;;
11228;SDS011;5671;47.936;8.716;2023-06-14T09:16:57;4.40;;;2.93;;
11228;SDS011;5671;47.936;8.716;2023-06-14T09:23:13;2.73;;;2.47;;
11228;SDS011;5671;47.936;8.716;2023-06-14T09:25:46;6.57;;;2.97;;
11228;SDS011;5671;47.936;8.716;2023-06-14T09:28:13;7.70;;;3.20;;
11228;SDS011;5671;47.936;8.716;2023-06-14T09:31:48;4.57;;;2.63;;
11228;SDS011;5671;47.936;8.716;2023-06-14T09:34:04;5.93;;;2.67;;
11228;SDS011;5671;47.936;8.716;2023-06-14T09:36:31;3.50;;;3.07;;
11228;SDS011;5671;47.936;8.716;2023-06-14T09:42:35;3.37;;;2.70;;
11228;SDS011;5671;47.936;8.716;2023-06-14T09:48:55;5.57;;;3.00;;
11228;SDS011;5671;47.936;8.716;2023-06-14T09:51:34;4.97;;;3.13;;
11228;SDS011;5671;47.936;8.716;2023-06-14T09:54:14;3.50;;;2.70;;
11228;SDS011;5671;47.936;8.716;2023-06-14T09:56:54;3.10;;;2.73;;
11228;SDS011;5671;47.936;8.716;2023-06-14T09:59:44;7.37;;;3.03;;
11228;SDS011;5671;47.936;8.716;2023-06-14T10:02:41;4.87;;;3.00;;
11228;SDS011;5671;47.936;8.716;2023-06-14T10:05:15;3.03;;;2.83;;
11228;SDS011;5671;47.936;8.716;2023-06-14T10:08:03;3.63;;;2.87;;
11228;SDS011;5671;47.936;8.716;2023-06-14T10:10:38;7.90;;;3.10;;
11228;SDS011;5671;47.936;8.716;2023-06-14T10:13:11;4.00;;;3.00;;
11228;SDS011;5671;47.936;8.716;2023-06-14T10:15:41;2.80;;;2.60;;
11228;SDS011;5671;47.936;8.716;2023-06-14T10:18:14;3.23;;;2.67;;
11228;SDS011;5671;47.936;8.716;2023-06-14T10:20:50;2.60;;;2.40;;
11228;SDS011;5671;47.936;8.716;2023-06-14T10:23:52;2.87;;;2.57;;
11228;SDS011;5671;47.936;8.716;2023-06-14T10:26:26;6.13;;;3.03;;
11228;SDS011;5671;47.936;8.716;2023-06-14T10:28:59;3.90;;;2.60;;
11228;SDS011;5671;47.936;8.716;2023-06-14T10:31:41;4.47;;;2.87;;
11228;SDS011;5671;47.936;8.716;2023-06-14T10:34:12;3.27;;;2.77;;
11228;SDS011;5671;47.936;8.716;2023-06-14T10:39:49;5.80;;;3.07;;
11228;SDS011;5671;47.936;8.716;2023-06-14T10:42:18;4.27;;;2.60;;
11228;SDS011;5671;47.936;8.716;2023-06-14T10:44:49;3.53;;;2.90;;
11228;SDS011;5671;47.936;8.716;2023-06-14T10:47:25;3.20;;;2.87;;
11228;SDS011;5671;47.936;8.716;2023-06-14T10:49:54;3.80;;;3.00;;
11228;SDS011;5671;47.936;8.716;2023-06-14T10:52:25;4.37;;;3.10;;
11228;SDS011;5671;47.936;8.716;2023-06-14T10:58:00;3.33;;;2.73;;
11228;SDS011;5671;47.936;8.716;2023-06-14T11:00:28;6.10;;;2.60;;
11228;SDS011;5671;47.936;8.716;2023-06-14T11:06:02;4.37;;;2.80;;
11228;SDS011;5671;47.936;8.716;2023-06-14T11:08:48;3.40;;;2.97;;
11228;SDS011;5671;47.936;8.716;2023-06-14T11:11:44;4.93;;;3.27;;
11228;SDS011;5671;47.936;8.716;2023-06-14T11:14:12;3.63;;;3.03;;
11228;SDS011;5671;47.936;8.716;2023-06-14T11:16:39;8.20;;;2.73;;
11228;SDS011;5671;47.936;8.716;2023-06-14T11:19:14;4.37;;;2.93;;
11228;SDS011;5671;47.936;8.716;2023-06-14T11:21:46;4.00;;;2.83;;
11228;SDS011;5671;47.936;8.716;2023-06-14T11:24:24;9.23;;;3.23;;
11228;SDS011;5671;47.936;8.716;2023-06-14T11:26:55;7.13;;;2.60;;
11228;SDS011;5671;47.936;8.716;2023-06-14T11:29:26;2.93;;;2.73;;
11228;SDS011;5671;47.936;8.716;2023-06-14T11:31:58;4.73;;;2.90;;
11228;SDS011;5671;47.936;8.716;2023-06-14T11:34:25;4.80;;;3.00;;
11228;SDS011;5671;47.936;8.716;2023-06-14T11:37:03;6.13;;;3.23;;
11228;SDS011;5671;47.936;8.716;2023-06-14T11:39:30;5.17;;;3.03;;
11228;SDS011;5671;47.936;8.716;2023-06-14T11:41:57;10.73;;;3.30;;
11228;SDS011;5671;47.936;8.716;2023-06-14T11:44:26;5.20;;;3.00;;
11228;SDS011;5671;47.936;8.716;2023-06-14T11:46:57;5.93;;;3.40;;
11228;SDS011;5671;47.936;8.716;2023-06-14T11:49:24;3.20;;;2.90;;
11228;SDS011;5671;47.936;8.716;2023-06-14T11:52:00;4.50;;;3.20;;
11228;SDS011;5671;47.936;8.716;2023-06-14T11:54:31;5.80;;;3.20;;
11228;SDS011;5671;47.936;8.716;2023-06-14T11:56:59;9.47;;;3.30;;
11228;SDS011;5671;47.936;8.716;2023-06-14T11:59:25;5.13;;;2.90;;
11228;SDS011;5671;47.936;8.716;2023-06-14T12:01:53;4.50;;;3.03;;
11228;SDS011;5671;47.936;8.716;2023-06-14T12:04:26;4.77;;;3.60;;
11228;SDS011;5671;47.936;8.716;2023-06-14T12:06:56;8.63;;;3.30;;
11228;SDS011;5671;47.936;8.716;2023-06-14T12:09:24;3.20;;;2.90;;
11228;SDS011;5671;47.936;8.716;2023-06-14T12:12:06;4.23;;;3.33;;
11228;SDS011;5671;47.936;8.716;2023-06-14T12:14:33;3.70;;;3.23;;
11228;SDS011;5671;47.936;8.716;2023-06-14T12:17:03;5.27;;;3.43;;
11228;SDS011;5671;47.936;8.716;2023-06-14T12:19:32;6.17;;;3.20;;
11228;SDS011;5671;47.936;8.716;2023-06-14T12:21:59;6.10;;;3.20;;
11228;SDS011;5671;47.936;8.716;2023-06-14T12:24:31;4.83;;;3.00;;
11228;SDS011;5671;47.936;8.716;2023-06-14T12:27:04;4.03;;;3.10;;
11228;SDS011;5671;47.936;8.716;2023-06-14T12:29:40;4.10;;;2.90;;
11228;SDS011;5671;47.936;8.716;2023-06-14T12:32:08;7.07;;;3.60;;
11228;SDS011;5671;47.936;8.716;2023-06-14T12:34:35;3.60;;;3.10;;
11228;SDS011;5671;47.936;8.716;2023-06-14T12:37:10;7.20;;;3.17;;
11228;SDS011;5671;47.936;8.716;2023-06-14T12:39:52;6.23;;;3.30;;
11228;SDS011;5671;47.936;8.716;2023-06-14T12:42:19;4.77;;;3.13;;
11228;SDS011;5671;47.936;8.716;2023-06-14T12:44:46;3.30;;;3.00;;
11228;SDS011;5671;47.936;8.716;2023-06-14T12:47:14;5.83;;;3.07;;
11228;SDS011;5671;47.936;8.716;2023-06-14T12:49:41;5.30;;;3.10;;
11228;SDS011;5671;47.936;8.716;2023-06-14T12:52:13;3.37;;;3.00;;
11228;SDS011;5671;47.936;8.716;2023-06-14T12:54:54;3.53;;;3.20;;
11228;SDS011;5671;47.936;8.716;2023-06-14T12:57:26;3.60;;;3.30;;
11228;SDS011;5671;47.936;8.716;2023-06-14T12:59:53;6.63;;;3.00;;
11228;SDS011;5671;47.936;8.716;2023-06-14T13:02:20;8.10;;;3.40;;
11228;SDS011;5671;47.936;8.716;2023-06-14T13:04:49;7.40;;;3.40;;
11228;SDS011;5671;47.936;8.716;2023-06-14T13:07:17;5.90;;;3.30;;
11228;SDS011;5671;47.936;8.716;2023-06-14T13:09:58;4.90;;;3.43;;
11228;SDS011;5671;47.936;8.716;2023-06-14T13:12:29;5.20;;;3.30;;
11228;SDS011;5671;47.936;8.716;2023-06-14T13:14:56;4.57;;;2.83;;
11228;SDS011;5671;47.936;8.716;2023-06-14T13:17:23;4.97;;;3.27;;
11228;SDS011;5671;47.936;8.716;2023-06-14T13:19:58;5.37;;;3.03;;
11228;SDS011;5671;47.936;8.716;2023-06-14T13:22:25;4.67;;;3.20;;
11228;SDS011;5671;47.936;8.716;2023-06-14T13:25:09;4.67;;;3.07;;
11228;SDS011;5671;47.936;8.716;2023-06-14T13:27:38;5.47;;;3.10;;
11228;SDS011;5671;47.936;8.716;2023-06-14T13:30:05;4.70;;;3.27;;
11228;SDS011;5671;47.936;8.716;2023-06-14T13:32:34;5.27;;;3.47;;
11228;SDS011;5671;47.936;8.716;2023-06-14T13:35:06;4.97;;;3.07;;
11228;SDS011;5671;47.936;8.716;2023-06-14T13:37:33;4.57;;;3.50;;
11228;SDS011;5671;47.936;8.716;2023-06-14T13:40:03;5.03;;;3.20;;
11228;SDS011;5671;47.936;8.716;2023-06-14T13:42:41;7.27;;;3.17;;
11228;SDS011;5671;47.936;8.716;2023-06-14T13:45:11;4.30;;;3.00;;
11228;SDS011;5671;47.936;8.716;2023-06-14T13:47:41;6.20;;;3.20;;
11228;SDS011;5671;47.936;8.716;2023-06-14T13:50:16;4.40;;;3.53;;
11228;SDS011;5671;47.936;8.716;2023-06-14T13:52:45;4.87;;;3.30;;
11228;SDS011;5671;47.936;8.716;2023-06-14T13:55:12;8.27;;;3.23;;
11228;SDS011;5671;47.936;8.716;2023-06-14T13:57:45;7.40;;;3.17;;
11228;SDS011;5671;47.936;8.716;2023-06-14T14:00:16;8.97;;;3.47;;
11228;SDS011;5671;47.936;8.716;2023-06-14T14:02:44;6.20;;;3.00;;
11228;SDS011;5671;47.936;8.716;2023-06-14T14:05:12;6.23;;;3.13;;
11228;SDS011;5671;47.936;8.716;2023-06-14T14:07:39;8.63;;;3.47;;
11228;SDS011;5671;47.936;8.716;2023-06-14T14:10:08;3.30;;;3.00;;
11228;SDS011;5671;47.936;8.716;2023-06-14T14:12:38;5.70;;;3.47;;
11228;SDS011;5671;47.936;8.716;2023-06-14T14:15:20;4.83;;;3.23;;
11228;SDS011;5671;47.936;8.716;2023-06-14T14:17:50;5.60;;;3.73;;
11228;SDS011;5671;47.936;8.716;2023-06-14T14:20:19;5.03;;;3.30;;
11228;SDS011;5671;47.936;8.716;2023-06-14T14:22:46;6.83;;;3.27;;
11228;SDS011;5671;47.936;8.716;2023-06-14T14:25:12;4.93;;;3.43;;
11228;SDS011;5671;47.936;8.716;2023-06-14T14:27:39;4.83;;;3.13;;
11228;SDS011;5671;47.936;8.716;2023-06-14T14:30:11;3.80;;;3.40;;
11228;SDS011;5671;47.936;8.716;2023-06-14T14:32:39;4.07;;;3.40;;
11228;SDS011;5671;47.936;8.716;2023-06-14T14:35:09;4.10;;;3.20;;
11228;SDS011;5671;47.936;8.716;2023-06-14T14:37:37;5.23;;;3.10;;
11228;SDS011;5671;47.936;8.716;2023-06-14T14:40:04;4.50;;;3.40;;
11228;SDS011;5671;47.936;8.716;2023-06-14T14:42:32;6.80;;;3.77;;
11228;SDS011;5671;47.936;8.716;2023-06-14T14:44:59;4.37;;;3.27;;
11228;SDS011;5671;47.936;8.716;2023-06-14T14:47:33;6.03;;;3.73;;
11228;SDS011;5671;47.936;8.716;2023-06-14T14:50:03;3.70;;;3.10;;
11228;SDS011;5671;47.936;8.716;2023-06-14T14:52:33;6.30;;;3.07;;
11228;SDS011;5671;47.936;8.716;2023-06-14T14:55:00;3.67;;;3.37;;
11228;SDS011;5671;47.936;8.716;2023-06-14T14:57:27;7.73;;;3.33;;
11228;SDS011;5671;47.936;8.716;2023-06-14T14:59:55;3.97;;;3.20;;
11228;SDS011;5671;47.936;8.716;2023-06-14T15:02:22;8.23;;;3.53;;
11228;SDS011;5671;47.936;8.716;2023-06-14T15:04:50;4.97;;;3.20;;
11228;SDS011;5671;47.936;8.716;2023-06-14T15:07:17;7.60;;;3.20;;
11228;SDS011;5671;47.936;8.716;2023-06-14T15:09:44;4.10;;;3.50;;
11228;SDS011;5671;47.936;8.716;2023-06-14T15:12:15;7.00;;;3.30;;
11228;SDS011;5671;47.936;8.716;2023-06-14T15:14:46;6.40;;;3.30;;
11228;SDS011;5671;47.936;8.716;2023-06-14T15:17:16;7.43;;;3.33;;
11228;SDS011;5671;47.936;8.716;2023-06-14T15:19:43;5.63;;;3.40;;
11228;SDS011;5671;47.936;8.716;2023-06-14T15:22:11;3.30;;;3.00;;
11228;SDS011;5671;47.936;8.716;2023-06-14T15:28:01;6.73;;;3.20;;
11228;SDS011;5671;47.936;8.716;2023-06-14T15:33:53;4.73;;;3.37;;
11228;SDS011;5671;47.936;8.716;2023-06-14T15:36:19;4.67;;;3.13;;
11228;SDS011;5671;47.936;8.716;2023-06-14T15:45:31;10.43;;;3.20;;
11228;SDS011;5671;47.936;8.716;2023-06-14T15:48:01;3.80;;;3.30;;
11228;SDS011;5671;47.936;8.716;2023-06-14T15:53:37;5.30;;;2.80;;
11228;SDS011;5671;47.936;8.716;2023-06-14T16:06:26;5.60;;;2.93;;
11228;SDS011;5671;47.936;8.716;2023-06-14T16:32:27;10.43;;;3.20;;
11228;SDS011;5671;47.936;8.716;2023-06-14T16:34:54;7.60;;;3.20;;
11228;SDS011;5671;47.936;8.716;2023-06-14T16:40:17;4.67;;;3.00;;
11228;SDS011;5671;47.936;8.716;2023-06-14T16:42:47;4.03;;;3.10;;
11228;SDS011;5671;47.936;8.716;2023-06-14T16:45:27;4.40;;;3.20;;
11228;SDS011;5671;47.936;8.716;2023-06-14T16:48:02;4.53;;;3.20;;
11228;SDS011;5671;47.936;8.716;2023-06-14T16:53:38;3.53;;;3.23;;
11228;SDS011;5671;47.936;8.716;2023-06-14T16:56:11;4.23;;;3.47;;
11228;SDS011;5671;47.936;8.716;2023-06-14T17:01:49;6.70;;;3.37;;
11228;SDS011;5671;47.936;8.716;2023-06-14T17:04:19;8.33;;;3.70;;